sensor_id;sensor_type;location;lat;lon;timestamp;P1;durP1;ratioP1;P2;durP2;ratioP2
59273;SDS011;45044;41.572;24.730;2023-01-29T00:01:36;19.63;;;12.47;;
59273;SDS011;45044;41.572;24.730;2023-01-29T00:04:03;28.37;;;17.93;;
59273;SDS011;45044;41.572;24.730;2023-01-29T00:06:30;21.70;;;12.70;;
59273;SDS011;45044;41.572;24.730;2023-01-29T00:08:57;22.43;;;12.83;;
59273;SDS011;45044;41.572;24.730;2023-01-29T00:11:24;23.70;;;15.43;;
59273;SDS011;45044;41.572;24.730;2023-01-29T00:13:51;21.33;;;14.83;;
59273;SDS011;45044;41.572;24.730;2023-01-29T00:16:18;21.03;;;12.97;;
59273;SDS011;45044;41.572;24.730;2023-01-29T00:18:46;18.10;;;11.97;;
59273;SDS011;45044;41.572;24.730;2023-01-29T00:21:14;19.20;;;11.93;;
59273;SDS011;45044;41.572;24.730;2023-01-29T00:23:45;17.53;;;11.13;;
59273;SDS011;45044;41.572;24.730;2023-01-29T00:26:12;16.07;;;10.93;;
59273;SDS011;45044;41.572;24.730;2023-01-29T00:28:39;17.43;;;10.60;;
59273;SDS011;45044;41.572;24.730;2023-01-29T00:31:14;15.60;;;10.50;;
59273;SDS011;45044;41.572;24.730;2023-01-29T00:33:47;18.40;;;11.07;;
59273;SDS011;45044;41.572;24.730;2023-01-29T00:36:15;18.33;;;11.40;;
59273;SDS011;45044;41.572;24.730;2023-01-29T00:38:43;19.40;;;10.93;;
59273;SDS011;45044;41.572;24.730;2023-01-29T00:41:14;20.57;;;13.03;;
59273;SDS011;45044;41.572;24.730;2023-01-29T00:44:00;22.73;;;14.90;;
59273;SDS011;45044;41.572;24.730;2023-01-29T00:46:46;27.10;;;15.67;;
59273;SDS011;45044;41.572;24.730;2023-01-29T00:49:12;23.93;;;14.53;;
59273;SDS011;45044;41.572;24.730;2023-01-29T00:51:39;21.70;;;11.70;;
59273;SDS011;45044;41.572;24.730;2023-01-29T00:54:06;18.13;;;10.80;;
59273;SDS011;45044;41.572;24.730;2023-01-29T00:56:34;19.50;;;10.50;;
59273;SDS011;45044;41.572;24.730;2023-01-29T00:59:02;22.27;;;11.87;;
59273;SDS011;45044;41.572;24.730;2023-01-29T01:01:30;19.47;;;11.50;;
59273;SDS011;45044;41.572;24.730;2023-01-29T01:04:15;23.77;;;13.90;;
59273;SDS011;45044;41.572;24.730;2023-01-29T01:06:42;17.20;;;12.10;;
59273;SDS011;45044;41.572;24.730;2023-01-29T01:09:09;16.60;;;10.23;;
59273;SDS011;45044;41.572;24.730;2023-01-29T01:11:55;17.90;;;11.53;;
59273;SDS011;45044;41.572;24.730;2023-01-29T01:14:21;26.30;;;14.90;;
59273;SDS011;45044;41.572;24.730;2023-01-29T01:16:48;22.90;;;14.20;;
59273;SDS011;45044;41.572;24.730;2023-01-29T01:19:15;29.33;;;16.07;;
59273;SDS011;45044;41.572;24.730;2023-01-29T01:21:43;25.70;;;14.50;;
59273;SDS011;45044;41.572;24.730;2023-01-29T01:24:12;25.37;;;13.70;;
59273;SDS011;45044;41.572;24.730;2023-01-29T01:26:39;23.57;;;13.63;;
59273;SDS011;45044;41.572;24.730;2023-01-29T01:29:06;24.50;;;13.80;;
59273;SDS011;45044;41.572;24.730;2023-01-29T01:31:33;23.93;;;14.03;;
59273;SDS011;45044;41.572;24.730;2023-01-29T01:33:59;24.57;;;14.83;;
59273;SDS011;45044;41.572;24.730;2023-01-29T01:36:26;23.70;;;14.63;;
59273;SDS011;45044;41.572;24.730;2023-01-29T01:38:53;22.87;;;15.30;;
59273;SDS011;45044;41.572;24.730;2023-01-29T01:41:20;25.83;;;16.33;;
59273;SDS011;45044;41.572;24.730;2023-01-29T01:43:54;32.27;;;17.97;;
59273;SDS011;45044;41.572;24.730;2023-01-29T01:46:21;33.10;;;18.77;;
59273;SDS011;45044;41.572;24.730;2023-01-29T01:48:50;34.93;;;18.83;;
59273;SDS011;45044;41.572;24.730;2023-01-29T01:51:22;32.23;;;19.50;;
59273;SDS011;45044;41.572;24.730;2023-01-29T01:53:55;40.27;;;22.10;;
59273;SDS011;45044;41.572;24.730;2023-01-29T01:56:31;25.40;;;16.50;;
59273;SDS011;45044;41.572;24.730;2023-01-29T01:59:07;25.50;;;16.10;;
59273;SDS011;45044;41.572;24.730;2023-01-29T02:01:37;31.17;;;18.07;;
59273;SDS011;45044;41.572;24.730;2023-01-29T02:04:09;22.97;;;13.80;;
59273;SDS011;45044;41.572;24.730;2023-01-29T02:06:57;22.17;;;14.20;;
59273;SDS011;45044;41.572;24.730;2023-01-29T02:09:52;29.47;;;15.17;;
59273;SDS011;45044;41.572;24.730;2023-01-29T02:12:41;28.70;;;16.48;;
59273;SDS011;45044;41.572;24.730;2023-01-29T02:15:19;27.97;;;15.93;;
59273;SDS011;45044;41.572;24.730;2023-01-29T02:17:46;39.10;;;21.13;;
59273;SDS011;45044;41.572;24.730;2023-01-29T02:20:17;38.00;;;21.43;;
59273;SDS011;45044;41.572;24.730;2023-01-29T02:39:22;22.15;;;12.52;;
59273;SDS011;45044;41.572;24.730;2023-01-29T02:42:13;24.57;;;14.00;;
59273;SDS011;45044;41.572;24.730;2023-01-29T02:44:55;26.77;;;14.87;;
59273;SDS011;45044;41.572;24.730;2023-01-29T02:47:32;25.52;;;14.73;;
59273;SDS011;45044;41.572;24.730;2023-01-29T02:53:15;23.23;;;15.07;;
59273;SDS011;45044;41.572;24.730;2023-01-29T02:55:48;25.87;;;14.63;;
59273;SDS011;45044;41.572;24.730;2023-01-29T02:58:23;27.67;;;16.17;;
59273;SDS011;45044;41.572;24.730;2023-01-29T03:01:00;25.10;;;14.47;;
59273;SDS011;45044;41.572;24.730;2023-01-29T03:03:50;25.53;;;15.50;;
59273;SDS011;45044;41.572;24.730;2023-01-29T03:06:26;28.23;;;16.33;;
59273;SDS011;45044;41.572;24.730;2023-01-29T03:08:59;29.77;;;17.03;;
59273;SDS011;45044;41.572;24.730;2023-01-29T03:11:40;27.40;;;15.27;;
59273;SDS011;45044;41.572;24.730;2023-01-29T03:14:11;26.70;;;15.33;;
59273;SDS011;45044;41.572;24.730;2023-01-29T03:19:19;27.40;;;16.45;;
59273;SDS011;45044;41.572;24.730;2023-01-29T03:21:57;28.47;;;16.43;;
59273;SDS011;45044;41.572;24.730;2023-01-29T03:27:30;34.00;;;18.43;;
59273;SDS011;45044;41.572;24.730;2023-01-29T03:30:20;31.00;;;17.37;;
59273;SDS011;45044;41.572;24.730;2023-01-29T03:33:09;32.27;;;18.80;;
59273;SDS011;45044;41.572;24.730;2023-01-29T03:35:40;35.80;;;19.37;;
59273;SDS011;45044;41.572;24.730;2023-01-29T03:38:16;33.47;;;18.63;;
59273;SDS011;45044;41.572;24.730;2023-01-29T03:40:52;31.10;;;16.97;;
59273;SDS011;45044;41.572;24.730;2023-01-29T03:43:34;31.47;;;17.93;;
59273;SDS011;45044;41.572;24.730;2023-01-29T03:46:28;30.40;;;18.53;;
59273;SDS011;45044;41.572;24.730;2023-01-29T03:49:00;33.67;;;17.30;;
59273;SDS011;45044;41.572;24.730;2023-01-29T03:54:57;31.77;;;17.67;;
59273;SDS011;45044;41.572;24.730;2023-01-29T04:00:27;30.97;;;16.33;;
59273;SDS011;45044;41.572;24.730;2023-01-29T04:05:49;30.57;;;18.93;;
59273;SDS011;45044;41.572;24.730;2023-01-29T04:08:51;33.90;;;18.93;;
59273;SDS011;45044;41.572;24.730;2023-01-29T04:11:24;32.60;;;17.97;;
59273;SDS011;45044;41.572;24.730;2023-01-29T04:13:54;31.07;;;17.20;;
59273;SDS011;45044;41.572;24.730;2023-01-29T04:16:23;30.57;;;18.43;;
59273;SDS011;45044;41.572;24.730;2023-01-29T04:18:54;32.60;;;17.70;;
59273;SDS011;45044;41.572;24.730;2023-01-29T04:21:22;29.93;;;16.73;;
59273;SDS011;45044;41.572;24.730;2023-01-29T04:23:50;30.57;;;19.13;;
59273;SDS011;45044;41.572;24.730;2023-01-29T04:26:24;29.17;;;16.60;;
59273;SDS011;45044;41.572;24.730;2023-01-29T04:35:00;38.07;;;20.80;;
59273;SDS011;45044;41.572;24.730;2023-01-29T04:37:43;34.27;;;20.80;;
59273;SDS011;45044;41.572;24.730;2023-01-29T04:43:58;38.20;;;24.23;;
59273;SDS011;45044;41.572;24.730;2023-01-29T04:57:17;24.27;;;15.60;;
59273;SDS011;45044;41.572;24.730;2023-01-29T05:00:05;21.23;;;13.97;;
59273;SDS011;45044;41.572;24.730;2023-01-29T05:02:48;20.47;;;13.57;;
59273;SDS011;45044;41.572;24.730;2023-01-29T05:05:17;19.43;;;11.23;;
59273;SDS011;45044;41.572;24.730;2023-01-29T05:07:45;18.33;;;11.03;;
59273;SDS011;45044;41.572;24.730;2023-01-29T05:10:15;17.80;;;11.43;;
59273;SDS011;45044;41.572;24.730;2023-01-29T05:12:46;17.60;;;11.63;;
59273;SDS011;45044;41.572;24.730;2023-01-29T05:15:19;18.83;;;11.70;;
59273;SDS011;45044;41.572;24.730;2023-01-29T05:17:51;19.27;;;12.93;;
59273;SDS011;45044;41.572;24.730;2023-01-29T05:20:19;20.40;;;14.23;;
59273;SDS011;45044;41.572;24.730;2023-01-29T05:22:46;19.83;;;12.50;;
59273;SDS011;45044;41.572;24.730;2023-01-29T05:25:22;19.60;;;12.40;;
59273;SDS011;45044;41.572;24.730;2023-01-29T05:27:51;21.27;;;14.33;;
59273;SDS011;45044;41.572;24.730;2023-01-29T05:30:45;21.50;;;13.37;;
59273;SDS011;45044;41.572;24.730;2023-01-29T05:33:18;22.93;;;14.33;;
59273;SDS011;45044;41.572;24.730;2023-01-29T05:35:53;25.47;;;17.30;;
59273;SDS011;45044;41.572;24.730;2023-01-29T05:38:21;31.63;;;20.20;;
59273;SDS011;45044;41.572;24.730;2023-01-29T05:40:49;29.30;;;20.63;;
59273;SDS011;45044;41.572;24.730;2023-01-29T05:43:23;23.83;;;16.87;;
59273;SDS011;45044;41.572;24.730;2023-01-29T05:45:54;24.27;;;17.08;;
59273;SDS011;45044;41.572;24.730;2023-01-29T05:50:58;21.43;;;14.43;;
59273;SDS011;45044;41.572;24.730;2023-01-29T05:53:30;28.67;;;18.33;;
59273;SDS011;45044;41.572;24.730;2023-01-29T05:55:59;38.07;;;27.80;;
59273;SDS011;45044;41.572;24.730;2023-01-29T05:58:28;31.20;;;23.17;;
59273;SDS011;45044;41.572;24.730;2023-01-29T06:00:57;27.93;;;20.07;;
59273;SDS011;45044;41.572;24.730;2023-01-29T06:03:24;32.47;;;19.90;;
59273;SDS011;45044;41.572;24.730;2023-01-29T06:05:50;39.47;;;23.77;;
59273;SDS011;45044;41.572;24.730;2023-01-29T06:08:17;48.60;;;30.27;;
59273;SDS011;45044;41.572;24.730;2023-01-29T06:10:44;42.10;;;27.63;;
59273;SDS011;45044;41.572;24.730;2023-01-29T06:13:10;43.37;;;30.27;;
59273;SDS011;45044;41.572;24.730;2023-01-29T06:15:38;45.70;;;31.07;;
59273;SDS011;45044;41.572;24.730;2023-01-29T06:18:05;31.57;;;21.27;;
59273;SDS011;45044;41.572;24.730;2023-01-29T06:20:32;50.83;;;38.27;;
59273;SDS011;45044;41.572;24.730;2023-01-29T06:22:59;56.30;;;34.43;;
59273;SDS011;45044;41.572;24.730;2023-01-29T06:25:26;64.83;;;36.10;;
59273;SDS011;45044;41.572;24.730;2023-01-29T06:27:52;66.10;;;40.87;;
59273;SDS011;45044;41.572;24.730;2023-01-29T06:30:19;61.77;;;37.37;;
59273;SDS011;45044;41.572;24.730;2023-01-29T06:32:46;49.27;;;32.27;;
59273;SDS011;45044;41.572;24.730;2023-01-29T06:35:13;44.80;;;30.70;;
59273;SDS011;45044;41.572;24.730;2023-01-29T06:37:39;63.20;;;38.83;;
59273;SDS011;45044;41.572;24.730;2023-01-29T06:40:06;45.53;;;31.43;;
59273;SDS011;45044;41.572;24.730;2023-01-29T06:42:34;35.63;;;24.93;;
59273;SDS011;45044;41.572;24.730;2023-01-29T06:45:01;39.57;;;30.77;;
59273;SDS011;45044;41.572;24.730;2023-01-29T06:47:28;35.07;;;28.10;;
59273;SDS011;45044;41.572;24.730;2023-01-29T06:49:55;35.17;;;27.33;;
59273;SDS011;45044;41.572;24.730;2023-01-29T06:52:22;41.57;;;31.30;;
59273;SDS011;45044;41.572;24.730;2023-01-29T06:54:50;42.47;;;28.77;;
59273;SDS011;45044;41.572;24.730;2023-01-29T06:57:17;43.73;;;31.40;;
59273;SDS011;45044;41.572;24.730;2023-01-29T06:59:44;43.27;;;28.53;;
59273;SDS011;45044;41.572;24.730;2023-01-29T07:02:14;46.50;;;32.10;;
59273;SDS011;45044;41.572;24.730;2023-01-29T07:04:41;36.23;;;25.83;;
59273;SDS011;45044;41.572;24.730;2023-01-29T07:07:08;32.63;;;21.40;;
59273;SDS011;45044;41.572;24.730;2023-01-29T07:09:41;35.03;;;24.43;;
59273;SDS011;45044;41.572;24.730;2023-01-29T07:12:08;51.07;;;35.50;;
59273;SDS011;45044;41.572;24.730;2023-01-29T07:14:35;36.70;;;25.13;;
59273;SDS011;45044;41.572;24.730;2023-01-29T07:17:02;42.07;;;29.40;;
59273;SDS011;45044;41.572;24.730;2023-01-29T07:19:29;40.57;;;28.13;;
59273;SDS011;45044;41.572;24.730;2023-01-29T07:21:56;38.33;;;27.33;;
59273;SDS011;45044;41.572;24.730;2023-01-29T07:24:23;75.00;;;42.20;;
59273;SDS011;45044;41.572;24.730;2023-01-29T07:26:50;36.03;;;26.63;;
59273;SDS011;45044;41.572;24.730;2023-01-29T07:29:17;33.93;;;24.37;;
59273;SDS011;45044;41.572;24.730;2023-01-29T07:31:46;51.67;;;37.77;;
59273;SDS011;45044;41.572;24.730;2023-01-29T07:34:13;34.40;;;26.30;;
59273;SDS011;45044;41.572;24.730;2023-01-29T07:36:40;35.27;;;26.03;;
59273;SDS011;45044;41.572;24.730;2023-01-29T07:39:06;43.70;;;29.00;;
59273;SDS011;45044;41.572;24.730;2023-01-29T07:41:33;39.03;;;28.47;;
59273;SDS011;45044;41.572;24.730;2023-01-29T07:44:00;46.27;;;33.03;;
59273;SDS011;45044;41.572;24.730;2023-01-29T07:46:27;41.17;;;30.77;;
59273;SDS011;45044;41.572;24.730;2023-01-29T07:48:54;94.63;;;59.70;;
59273;SDS011;45044;41.572;24.730;2023-01-29T07:51:20;58.40;;;41.90;;
59273;SDS011;45044;41.572;24.730;2023-01-29T07:53:48;61.30;;;44.13;;
59273;SDS011;45044;41.572;24.730;2023-01-29T07:56:15;51.73;;;36.77;;
59273;SDS011;45044;41.572;24.730;2023-01-29T07:58:42;72.63;;;46.70;;
59273;SDS011;45044;41.572;24.730;2023-01-29T08:01:08;64.33;;;41.13;;
59273;SDS011;45044;41.572;24.730;2023-01-29T08:03:35;45.13;;;34.43;;
59273;SDS011;45044;41.572;24.730;2023-01-29T08:06:03;44.53;;;30.73;;
59273;SDS011;45044;41.572;24.730;2023-01-29T08:08:30;35.10;;;25.00;;
59273;SDS011;45044;41.572;24.730;2023-01-29T08:10:59;27.27;;;19.27;;
59273;SDS011;45044;41.572;24.730;2023-01-29T08:13:26;21.07;;;15.10;;
59273;SDS011;45044;41.572;24.730;2023-01-29T08:15:57;16.97;;;11.60;;
59273;SDS011;45044;41.572;24.730;2023-01-29T08:18:25;20.93;;;15.83;;
59273;SDS011;45044;41.572;24.730;2023-01-29T08:20:52;15.90;;;11.27;;
59273;SDS011;45044;41.572;24.730;2023-01-29T08:23:19;25.02;;;17.27;;
59273;SDS011;45044;41.572;24.730;2023-01-29T08:25:46;16.10;;;10.73;;
59273;SDS011;45044;41.572;24.730;2023-01-29T08:28:13;18.73;;;14.48;;
59273;SDS011;45044;41.572;24.730;2023-01-29T08:30:41;30.17;;;18.33;;
59273;SDS011;45044;41.572;24.730;2023-01-29T08:33:10;26.58;;;16.15;;
59273;SDS011;45044;41.572;24.730;2023-01-29T08:35:38;27.73;;;16.90;;
59273;SDS011;45044;41.572;24.730;2023-01-29T08:38:06;23.43;;;14.27;;
59273;SDS011;45044;41.572;24.730;2023-01-29T08:40:35;14.65;;;10.15;;
59273;SDS011;45044;41.572;24.730;2023-01-29T08:43:02;15.20;;;9.95;;
59273;SDS011;45044;41.572;24.730;2023-01-29T08:45:35;12.60;;;9.05;;
59273;SDS011;45044;41.572;24.730;2023-01-29T08:48:03;10.73;;;6.68;;
59273;SDS011;45044;41.572;24.730;2023-01-29T08:50:31;10.35;;;6.45;;
59273;SDS011;45044;41.572;24.730;2023-01-29T08:53:01;25.27;;;17.17;;
59273;SDS011;45044;41.572;24.730;2023-01-29T08:55:30;20.85;;;14.02;;
59273;SDS011;45044;41.572;24.730;2023-01-29T08:57:57;17.73;;;14.85;;
59273;SDS011;45044;41.572;24.730;2023-01-29T09:00:23;22.83;;;16.63;;
59273;SDS011;45044;41.572;24.730;2023-01-29T09:02:50;26.67;;;18.88;;
59273;SDS011;45044;41.572;24.730;2023-01-29T09:05:17;22.98;;;16.15;;
59273;SDS011;45044;41.572;24.730;2023-01-29T09:07:45;16.65;;;12.38;;
59273;SDS011;45044;41.572;24.730;2023-01-29T09:10:12;17.67;;;12.55;;
59273;SDS011;45044;41.572;24.730;2023-01-29T09:12:40;19.35;;;14.73;;
59273;SDS011;45044;41.572;24.730;2023-01-29T09:15:08;30.02;;;21.23;;
59273;SDS011;45044;41.572;24.730;2023-01-29T09:17:36;29.67;;;21.90;;
59273;SDS011;45044;41.572;24.730;2023-01-29T09:20:03;19.33;;;14.73;;
59273;SDS011;45044;41.572;24.730;2023-01-29T09:22:33;25.33;;;17.25;;
59273;SDS011;45044;41.572;24.730;2023-01-29T09:25:02;20.45;;;12.85;;
59273;SDS011;45044;41.572;24.730;2023-01-29T09:27:29;30.83;;;18.58;;
59273;SDS011;45044;41.572;24.730;2023-01-29T09:29:56;11.20;;;7.25;;
59273;SDS011;45044;41.572;24.730;2023-01-29T09:32:23;10.15;;;6.72;;
59273;SDS011;45044;41.572;24.730;2023-01-29T09:35:10;19.10;;;14.00;;
59273;SDS011;45044;41.572;24.730;2023-01-29T09:37:36;15.55;;;9.88;;
59273;SDS011;45044;41.572;24.730;2023-01-29T09:40:03;14.85;;;8.57;;
59273;SDS011;45044;41.572;24.730;2023-01-29T09:42:42;17.98;;;11.88;;
59273;SDS011;45044;41.572;24.730;2023-01-29T09:45:22;9.20;;;5.57;;
59273;SDS011;45044;41.572;24.730;2023-01-29T09:47:50;11.00;;;6.85;;
59273;SDS011;45044;41.572;24.730;2023-01-29T09:50:21;10.95;;;7.45;;
59273;SDS011;45044;41.572;24.730;2023-01-29T09:55:49;11.20;;;7.13;;
59273;SDS011;45044;41.572;24.730;2023-01-29T09:58:23;10.25;;;7.40;;
59273;SDS011;45044;41.572;24.730;2023-01-29T10:01:04;12.75;;;8.60;;
59273;SDS011;45044;41.572;24.730;2023-01-29T10:06:47;12.13;;;7.05;;
59273;SDS011;45044;41.572;24.730;2023-01-29T10:23:59;8.57;;;5.55;;
59273;SDS011;45044;41.572;24.730;2023-01-29T10:26:37;8.68;;;5.05;;
59273;SDS011;45044;41.572;24.730;2023-01-29T10:29:06;9.77;;;6.40;;
59273;SDS011;45044;41.572;24.730;2023-01-29T10:31:37;11.48;;;6.65;;
59273;SDS011;45044;41.572;24.730;2023-01-29T10:34:22;11.10;;;7.35;;
59273;SDS011;45044;41.572;24.730;2023-01-29T10:36:50;10.00;;;6.47;;
59273;SDS011;45044;41.572;24.730;2023-01-29T10:39:18;9.57;;;6.35;;
59273;SDS011;45044;41.572;24.730;2023-01-29T10:44:26;13.40;;;6.63;;
59273;SDS011;45044;41.572;24.730;2023-01-29T10:48:22;8.10;;;5.43;;
59273;SDS011;45044;41.572;24.730;2023-01-29T10:58:27;19.30;;;13.50;;
59273;SDS011;45044;41.572;24.730;2023-01-29T11:00:55;12.32;;;7.95;;
59273;SDS011;45044;41.572;24.730;2023-01-29T11:03:24;22.08;;;13.77;;
59273;SDS011;45044;41.572;24.730;2023-01-29T11:11:15;11.00;;;7.15;;
59273;SDS011;45044;41.572;24.730;2023-01-29T11:13:46;19.08;;;11.60;;
59273;SDS011;45044;41.572;24.730;2023-01-29T11:16:20;15.75;;;9.52;;
59273;SDS011;45044;41.572;24.730;2023-01-29T11:18:51;15.95;;;9.35;;
59273;SDS011;45044;41.572;24.730;2023-01-29T11:21:21;14.63;;;9.35;;
59273;SDS011;45044;41.572;24.730;2023-01-29T11:23:50;10.18;;;7.18;;
59273;SDS011;45044;41.572;24.730;2023-01-29T11:26:32;16.15;;;10.90;;
59273;SDS011;45044;41.572;24.730;2023-01-29T11:29:03;17.10;;;11.52;;
59273;SDS011;45044;41.572;24.730;2023-01-29T11:31:36;16.95;;;11.35;;
59273;SDS011;45044;41.572;24.730;2023-01-29T11:34:12;17.85;;;11.75;;
59273;SDS011;45044;41.572;24.730;2023-01-29T11:36:44;20.67;;;13.55;;
59273;SDS011;45044;41.572;24.730;2023-01-29T11:41:47;16.08;;;10.23;;
59273;SDS011;45044;41.572;24.730;2023-01-29T11:44:25;12.13;;;8.38;;
59273;SDS011;45044;41.572;24.730;2023-01-29T11:47:22;12.30;;;8.80;;
59273;SDS011;45044;41.572;24.730;2023-01-29T11:49:56;16.85;;;11.85;;
59273;SDS011;45044;41.572;24.730;2023-01-29T11:52:32;18.83;;;14.13;;
59273;SDS011;45044;41.572;24.730;2023-01-29T11:55:44;13.93;;;9.77;;
59273;SDS011;45044;41.572;24.730;2023-01-29T12:00:40;19.60;;;14.75;;
59273;SDS011;45044;41.572;24.730;2023-01-29T12:06:07;14.93;;;10.63;;
59273;SDS011;45044;41.572;24.730;2023-01-29T12:08:38;14.75;;;10.30;;
59273;SDS011;45044;41.572;24.730;2023-01-29T12:11:06;17.67;;;12.07;;
59273;SDS011;45044;41.572;24.730;2023-01-29T12:13:35;20.50;;;14.43;;
59273;SDS011;45044;41.572;24.730;2023-01-29T12:16:22;23.57;;;16.73;;
59273;SDS011;45044;41.572;24.730;2023-01-29T12:29:51;21.63;;;10.50;;
59273;SDS011;45044;41.572;24.730;2023-01-29T12:40:28;13.63;;;9.52;;
59273;SDS011;45044;41.572;24.730;2023-01-29T12:43:01;15.20;;;10.50;;
59273;SDS011;45044;41.572;24.730;2023-01-29T12:45:32;15.10;;;9.80;;
59273;SDS011;45044;41.572;24.730;2023-01-29T12:48:05;21.43;;;12.03;;
59273;SDS011;45044;41.572;24.730;2023-01-29T12:50:36;23.03;;;12.53;;
59273;SDS011;45044;41.572;24.730;2023-01-29T12:55:43;20.10;;;12.40;;
59273;SDS011;45044;41.572;24.730;2023-01-29T12:58:20;15.48;;;9.35;;
59273;SDS011;45044;41.572;24.730;2023-01-29T13:00:51;10.77;;;7.67;;
59273;SDS011;45044;41.572;24.730;2023-01-29T13:03:25;11.63;;;8.70;;
59273;SDS011;45044;41.572;24.730;2023-01-29T13:06:07;13.83;;;10.23;;
59273;SDS011;45044;41.572;24.730;2023-01-29T13:08:39;14.27;;;9.67;;
59273;SDS011;45044;41.572;24.730;2023-01-29T13:17:53;17.27;;;10.47;;
59273;SDS011;45044;41.572;24.730;2023-01-29T13:20:25;18.77;;;12.07;;
59273;SDS011;45044;41.572;24.730;2023-01-29T13:22:59;18.50;;;12.50;;
59273;SDS011;45044;41.572;24.730;2023-01-29T13:25:38;13.57;;;8.23;;
59273;SDS011;45044;41.572;24.730;2023-01-29T13:28:14;17.17;;;11.20;;
59273;SDS011;45044;41.572;24.730;2023-01-29T13:30:46;11.93;;;8.57;;
59273;SDS011;45044;41.572;24.730;2023-01-29T13:33:33;17.10;;;10.43;;
59273;SDS011;45044;41.572;24.730;2023-01-29T13:35:59;20.00;;;13.73;;
59273;SDS011;45044;41.572;24.730;2023-01-29T13:38:28;18.93;;;13.63;;
59273;SDS011;45044;41.572;24.730;2023-01-29T13:41:02;18.27;;;13.40;;
59273;SDS011;45044;41.572;24.730;2023-01-29T13:43:35;16.97;;;10.57;;
59273;SDS011;45044;41.572;24.730;2023-01-29T13:48:40;12.97;;;10.03;;
59273;SDS011;45044;41.572;24.730;2023-01-29T13:51:15;10.57;;;6.67;;
59273;SDS011;45044;41.572;24.730;2023-01-29T13:53:51;25.50;;;17.63;;
59273;SDS011;45044;41.572;24.730;2023-01-29T13:59:02;15.53;;;11.53;;
59273;SDS011;45044;41.572;24.730;2023-01-29T14:07:00;18.57;;;13.40;;
59273;SDS011;45044;41.572;24.730;2023-01-29T14:11:59;19.33;;;12.80;;
59273;SDS011;45044;41.572;24.730;2023-01-29T14:17:25;17.90;;;11.87;;
59273;SDS011;45044;41.572;24.730;2023-01-29T14:19:55;23.33;;;15.27;;
59273;SDS011;45044;41.572;24.730;2023-01-29T14:22:28;24.83;;;17.07;;
59273;SDS011;45044;41.572;24.730;2023-01-29T14:25:00;22.07;;;15.27;;
59273;SDS011;45044;41.572;24.730;2023-01-29T14:27:30;23.90;;;14.77;;
59273;SDS011;45044;41.572;24.730;2023-01-29T14:29:58;26.27;;;16.27;;
59273;SDS011;45044;41.572;24.730;2023-01-29T14:32:27;18.27;;;11.90;;
59273;SDS011;45044;41.572;24.730;2023-01-29T14:35:02;28.80;;;16.57;;
59273;SDS011;45044;41.572;24.730;2023-01-29T14:37:51;23.52;;;17.15;;
59273;SDS011;45044;41.572;24.730;2023-01-29T14:40:22;22.07;;;15.97;;
59273;SDS011;45044;41.572;24.730;2023-01-29T14:45:31;23.63;;;16.00;;
59273;SDS011;45044;41.572;24.730;2023-01-29T14:50:38;22.33;;;15.07;;
59273;SDS011;45044;41.572;24.730;2023-01-29T14:56:03;16.55;;;12.60;;
59273;SDS011;45044;41.572;24.730;2023-01-29T15:01:06;21.63;;;15.10;;
59273;SDS011;45044;41.572;24.730;2023-01-29T15:06:45;32.73;;;22.77;;
59273;SDS011;45044;41.572;24.730;2023-01-29T15:12:55;34.47;;;24.17;;
59273;SDS011;45044;41.572;24.730;2023-01-29T15:18:18;19.43;;;13.73;;
59273;SDS011;45044;41.572;24.730;2023-01-29T15:21:00;19.67;;;12.73;;
59273;SDS011;45044;41.572;24.730;2023-01-29T15:23:31;19.93;;;14.77;;
59273;SDS011;45044;41.572;24.730;2023-01-29T15:26:06;23.30;;;13.60;;
59273;SDS011;45044;41.572;24.730;2023-01-29T15:28:37;25.77;;;16.73;;
59273;SDS011;45044;41.572;24.730;2023-01-29T15:31:05;21.40;;;14.07;;
59273;SDS011;45044;41.572;24.730;2023-01-29T15:33:41;25.57;;;13.87;;
59273;SDS011;45044;41.572;24.730;2023-01-29T15:36:21;16.27;;;10.90;;
59273;SDS011;45044;41.572;24.730;2023-01-29T15:41:48;55.47;;;28.77;;
59273;SDS011;45044;41.572;24.730;2023-01-29T15:44:18;18.37;;;13.27;;
59273;SDS011;45044;41.572;24.730;2023-01-29T15:49:24;14.73;;;9.00;;
59273;SDS011;45044;41.572;24.730;2023-01-29T15:52:03;22.07;;;16.50;;
59273;SDS011;45044;41.572;24.730;2023-01-29T15:54:33;32.08;;;21.63;;
59273;SDS011;45044;41.572;24.730;2023-01-29T15:57:01;35.00;;;23.27;;
59273;SDS011;45044;41.572;24.730;2023-01-29T15:59:30;39.73;;;27.17;;
59273;SDS011;45044;41.572;24.730;2023-01-29T16:05:00;31.10;;;21.73;;
59273;SDS011;45044;41.572;24.730;2023-01-29T16:07:29;40.70;;;26.20;;
59273;SDS011;45044;41.572;24.730;2023-01-29T16:09:57;31.30;;;18.50;;
59273;SDS011;45044;41.572;24.730;2023-01-29T16:12:25;35.97;;;22.87;;
59273;SDS011;45044;41.572;24.730;2023-01-29T16:14:53;32.10;;;21.00;;
59273;SDS011;45044;41.572;24.730;2023-01-29T16:20:02;33.60;;;23.27;;
59273;SDS011;45044;41.572;24.730;2023-01-29T16:22:35;47.63;;;30.27;;
59273;SDS011;45044;41.572;24.730;2023-01-29T16:27:30;45.57;;;31.73;;
59273;SDS011;45044;41.572;24.730;2023-01-29T16:29:58;39.83;;;25.50;;
59273;SDS011;45044;41.572;24.730;2023-01-29T16:32:28;45.10;;;27.47;;
59273;SDS011;45044;41.572;24.730;2023-01-29T16:34:56;48.13;;;31.37;;
59273;SDS011;45044;41.572;24.730;2023-01-29T16:37:29;51.37;;;32.47;;
59273;SDS011;45044;41.572;24.730;2023-01-29T16:39:58;52.33;;;34.37;;
59273;SDS011;45044;41.572;24.730;2023-01-29T16:42:26;34.33;;;25.20;;
59273;SDS011;45044;41.572;24.730;2023-01-29T16:52:59;16.73;;;11.50;;
59273;SDS011;45044;41.572;24.730;2023-01-29T16:55:47;13.10;;;9.43;;
59273;SDS011;45044;41.572;24.730;2023-01-29T16:58:25;15.50;;;11.80;;
59273;SDS011;45044;41.572;24.730;2023-01-29T17:01:03;24.83;;;18.97;;
59273;SDS011;45044;41.572;24.730;2023-01-29T17:03:36;26.50;;;20.87;;
59273;SDS011;45044;41.572;24.730;2023-01-29T17:06:08;32.53;;;23.97;;
59273;SDS011;45044;41.572;24.730;2023-01-29T17:08:37;54.57;;;36.93;;
59273;SDS011;45044;41.572;24.730;2023-01-29T17:11:06;66.23;;;43.80;;
59273;SDS011;45044;41.572;24.730;2023-01-29T17:13:42;55.57;;;34.57;;
59273;SDS011;45044;41.572;24.730;2023-01-29T17:18:58;27.97;;;16.60;;
59273;SDS011;45044;41.572;24.730;2023-01-29T17:21:25;33.67;;;20.57;;
59273;SDS011;45044;41.572;24.730;2023-01-29T17:23:54;26.00;;;15.93;;
59273;SDS011;45044;41.572;24.730;2023-01-29T17:26:21;24.70;;;15.70;;
59273;SDS011;45044;41.572;24.730;2023-01-29T17:28:50;55.03;;;28.83;;
59273;SDS011;45044;41.572;24.730;2023-01-29T17:31:19;65.93;;;41.00;;
59273;SDS011;45044;41.572;24.730;2023-01-29T17:33:45;41.83;;;26.87;;
59273;SDS011;45044;41.572;24.730;2023-01-29T17:36:14;29.20;;;20.00;;
59273;SDS011;45044;41.572;24.730;2023-01-29T17:38:43;15.43;;;9.13;;
59273;SDS011;45044;41.572;24.730;2023-01-29T17:41:31;18.57;;;11.63;;
59273;SDS011;45044;41.572;24.730;2023-01-29T17:43:58;17.30;;;11.83;;
59273;SDS011;45044;41.572;24.730;2023-01-29T17:46:24;22.23;;;14.73;;
59273;SDS011;45044;41.572;24.730;2023-01-29T17:48:52;30.33;;;19.27;;